sensor_id;sensor_type;location;lat;lon;timestamp;P1;durP1;ratioP1;P2;durP2;ratioP2
60722;SDS011;46574;52.818;6.516;2023-03-21T00:01:37;38.28;;;20.42;;
60722;SDS011;46574;52.818;6.516;2023-03-21T00:04:03;37.50;;;20.65;;
60722;SDS011;46574;52.818;6.516;2023-03-21T00:06:28;39.50;;;20.00;;
60722;SDS011;46574;52.818;6.516;2023-03-21T00:08:55;37.95;;;19.67;;
60722;SDS011;46574;52.818;6.516;2023-03-21T00:11:20;34.60;;;17.83;;
60722;SDS011;46574;52.818;6.516;2023-03-21T00:13:46;32.63;;;19.00;;
60722;SDS011;46574;52.818;6.516;2023-03-21T00:16:12;33.97;;;18.85;;
60722;SDS011;46574;52.818;6.516;2023-03-21T00:18:43;35.67;;;18.98;;
60722;SDS011;46574;52.818;6.516;2023-03-21T00:21:14;36.38;;;19.42;;
60722;SDS011;46574;52.818;6.516;2023-03-21T00:23:42;31.05;;;17.83;;
60722;SDS011;46574;52.818;6.516;2023-03-21T00:26:09;35.53;;;18.42;;
60722;SDS011;46574;52.818;6.516;2023-03-21T00:28:38;35.33;;;18.45;;
60722;SDS011;46574;52.818;6.516;2023-03-21T00:31:05;31.42;;;17.38;;
60722;SDS011;46574;52.818;6.516;2023-03-21T00:33:31;32.85;;;17.65;;
60722;SDS011;46574;52.818;6.516;2023-03-21T00:35:58;30.40;;;17.10;;
60722;SDS011;46574;52.818;6.516;2023-03-21T00:38:24;35.13;;;18.67;;
60722;SDS011;46574;52.818;6.516;2023-03-21T00:40:50;38.08;;;18.65;;
60722;SDS011;46574;52.818;6.516;2023-03-21T00:43:16;32.58;;;18.05;;
60722;SDS011;46574;52.818;6.516;2023-03-21T00:45:44;35.78;;;18.30;;
60722;SDS011;46574;52.818;6.516;2023-03-21T00:48:10;34.40;;;18.65;;
60722;SDS011;46574;52.818;6.516;2023-03-21T00:50:37;39.15;;;18.45;;
60722;SDS011;46574;52.818;6.516;2023-03-21T00:53:04;33.58;;;18.35;;
60722;SDS011;46574;52.818;6.516;2023-03-21T00:55:30;39.85;;;18.98;;
60722;SDS011;46574;52.818;6.516;2023-03-21T00:57:56;37.47;;;19.33;;
60722;SDS011;46574;52.818;6.516;2023-03-21T01:00:21;34.38;;;18.45;;
60722;SDS011;46574;52.818;6.516;2023-03-21T01:02:47;39.03;;;20.00;;
60722;SDS011;46574;52.818;6.516;2023-03-21T01:05:22;36.75;;;17.88;;
60722;SDS011;46574;52.818;6.516;2023-03-21T01:08:12;36.55;;;19.10;;
60722;SDS011;46574;52.818;6.516;2023-03-21T01:10:40;35.97;;;18.73;;
60722;SDS011;46574;52.818;6.516;2023-03-21T01:13:08;34.87;;;18.57;;
60722;SDS011;46574;52.818;6.516;2023-03-21T01:15:34;36.35;;;19.02;;
60722;SDS011;46574;52.818;6.516;2023-03-21T01:18:01;37.50;;;19.55;;
60722;SDS011;46574;52.818;6.516;2023-03-21T01:20:28;43.42;;;20.42;;
60722;SDS011;46574;52.818;6.516;2023-03-21T01:22:54;40.20;;;19.65;;
60722;SDS011;46574;52.818;6.516;2023-03-21T01:25:19;36.67;;;19.50;;
60722;SDS011;46574;52.818;6.516;2023-03-21T01:27:45;42.35;;;20.75;;
60722;SDS011;46574;52.818;6.516;2023-03-21T01:30:11;44.67;;;21.05;;
60722;SDS011;46574;52.818;6.516;2023-03-21T01:32:37;39.00;;;20.38;;
60722;SDS011;46574;52.818;6.516;2023-03-21T01:35:03;43.45;;;20.70;;
60722;SDS011;46574;52.818;6.516;2023-03-21T01:37:28;37.38;;;20.45;;
60722;SDS011;46574;52.818;6.516;2023-03-21T01:39:54;45.38;;;20.83;;
60722;SDS011;46574;52.818;6.516;2023-03-21T01:42:20;41.70;;;21.58;;
60722;SDS011;46574;52.818;6.516;2023-03-21T01:44:56;36.92;;;20.25;;
60722;SDS011;46574;52.818;6.516;2023-03-21T01:47:23;39.08;;;20.60;;
60722;SDS011;46574;52.818;6.516;2023-03-21T01:49:50;42.03;;;20.58;;
60722;SDS011;46574;52.818;6.516;2023-03-21T01:52:19;41.80;;;20.73;;
60722;SDS011;46574;52.818;6.516;2023-03-21T01:54:48;44.83;;;22.80;;
60722;SDS011;46574;52.818;6.516;2023-03-21T01:57:16;44.85;;;23.20;;
60722;SDS011;46574;52.818;6.516;2023-03-21T01:59:49;48.08;;;23.33;;
60722;SDS011;46574;52.818;6.516;2023-03-21T02:02:20;45.17;;;21.90;;
60722;SDS011;46574;52.818;6.516;2023-03-21T02:04:49;47.55;;;23.10;;
60722;SDS011;46574;52.818;6.516;2023-03-21T02:07:24;44.88;;;22.40;;
60722;SDS011;46574;52.818;6.516;2023-03-21T02:10:02;41.97;;;20.85;;
60722;SDS011;46574;52.818;6.516;2023-03-21T02:12:32;46.00;;;21.58;;
60722;SDS011;46574;52.818;6.516;2023-03-21T02:14:58;45.28;;;21.60;;
60722;SDS011;46574;52.818;6.516;2023-03-21T02:17:32;38.17;;;20.30;;
60722;SDS011;46574;52.818;6.516;2023-03-21T02:36:24;37.20;;;18.98;;
60722;SDS011;46574;52.818;6.516;2023-03-21T02:41:25;36.22;;;18.23;;
60722;SDS011;46574;52.818;6.516;2023-03-21T02:46:51;34.45;;;17.40;;
60722;SDS011;46574;52.818;6.516;2023-03-21T02:49:42;32.40;;;16.40;;
60722;SDS011;46574;52.818;6.516;2023-03-21T02:52:18;29.40;;;15.38;;
60722;SDS011;46574;52.818;6.516;2023-03-21T02:54:54;25.77;;;14.73;;
60722;SDS011;46574;52.818;6.516;2023-03-21T02:57:21;29.65;;;14.95;;
60722;SDS011;46574;52.818;6.516;2023-03-21T02:59:49;25.77;;;14.73;;
60722;SDS011;46574;52.818;6.516;2023-03-21T03:02:18;26.60;;;14.20;;
60722;SDS011;46574;52.818;6.516;2023-03-21T03:04:47;23.90;;;14.23;;
60722;SDS011;46574;52.818;6.516;2023-03-21T03:12:48;22.25;;;13.55;;
60722;SDS011;46574;52.818;6.516;2023-03-21T03:17:58;26.75;;;14.18;;
60722;SDS011;46574;52.818;6.516;2023-03-21T03:24:05;25.15;;;13.57;;
60722;SDS011;46574;52.818;6.516;2023-03-21T03:26:27;25.15;;;13.93;;
60722;SDS011;46574;52.818;6.516;2023-03-21T03:31:30;24.10;;;14.05;;
60722;SDS011;46574;52.818;6.516;2023-03-21T03:33:59;28.65;;;14.75;;
60722;SDS011;46574;52.818;6.516;2023-03-21T03:36:32;28.23;;;15.57;;
60722;SDS011;46574;52.818;6.516;2023-03-21T03:39:05;21.13;;;13.65;;
60722;SDS011;46574;52.818;6.516;2023-03-21T03:41:35;26.52;;;15.05;;
60722;SDS011;46574;52.818;6.516;2023-03-21T03:44:08;24.00;;;13.77;;
60722;SDS011;46574;52.818;6.516;2023-03-21T03:46:55;25.02;;;15.25;;
60722;SDS011;46574;52.818;6.516;2023-03-21T03:49:20;28.80;;;14.57;;
60722;SDS011;46574;52.818;6.516;2023-03-21T03:52:00;27.73;;;15.05;;
60722;SDS011;46574;52.818;6.516;2023-03-21T03:54:36;23.92;;;14.27;;
60722;SDS011;46574;52.818;6.516;2023-03-21T03:57:04;27.73;;;15.77;;
60722;SDS011;46574;52.818;6.516;2023-03-21T03:59:35;22.00;;;14.38;;
60722;SDS011;46574;52.818;6.516;2023-03-21T04:02:01;25.88;;;15.15;;
60722;SDS011;46574;52.818;6.516;2023-03-21T04:04:28;22.13;;;14.27;;
60722;SDS011;46574;52.818;6.516;2023-03-21T04:06:55;27.80;;;15.93;;
60722;SDS011;46574;52.818;6.516;2023-03-21T04:09:22;21.67;;;13.20;;
60722;SDS011;46574;52.818;6.516;2023-03-21T04:11:49;27.92;;;15.20;;
60722;SDS011;46574;52.818;6.516;2023-03-21T04:14:15;22.63;;;14.40;;
60722;SDS011;46574;52.818;6.516;2023-03-21T04:16:41;24.58;;;15.02;;
60722;SDS011;46574;52.818;6.516;2023-03-21T04:19:06;26.13;;;15.02;;
60722;SDS011;46574;52.818;6.516;2023-03-21T04:21:32;25.42;;;15.70;;
60722;SDS011;46574;52.818;6.516;2023-03-21T04:23:58;22.60;;;14.75;;
60722;SDS011;46574;52.818;6.516;2023-03-21T04:26:24;28.80;;;16.45;;
60722;SDS011;46574;52.818;6.516;2023-03-21T04:28:50;25.40;;;15.88;;
60722;SDS011;46574;52.818;6.516;2023-03-21T04:31:16;24.67;;;15.15;;
60722;SDS011;46574;52.818;6.516;2023-03-21T04:33:44;25.65;;;15.68;;
60722;SDS011;46574;52.818;6.516;2023-03-21T04:36:12;27.00;;;17.00;;
60722;SDS011;46574;52.818;6.516;2023-03-21T04:38:49;26.40;;;17.33;;
60722;SDS011;46574;52.818;6.516;2023-03-21T04:41:15;27.85;;;18.23;;
60722;SDS011;46574;52.818;6.516;2023-03-21T04:43:40;25.45;;;15.50;;
60722;SDS011;46574;52.818;6.516;2023-03-21T04:46:06;25.00;;;15.77;;
60722;SDS011;46574;52.818;6.516;2023-03-21T04:48:32;24.38;;;17.38;;
60722;SDS011;46574;52.818;6.516;2023-03-21T04:50:58;24.50;;;16.88;;
60722;SDS011;46574;52.818;6.516;2023-03-21T04:53:23;25.15;;;16.40;;
60722;SDS011;46574;52.818;6.516;2023-03-21T04:55:49;28.08;;;17.90;;
60722;SDS011;46574;52.818;6.516;2023-03-21T04:58:15;27.48;;;18.08;;
60722;SDS011;46574;52.818;6.516;2023-03-21T05:00:41;25.23;;;16.13;;
60722;SDS011;46574;52.818;6.516;2023-03-21T05:03:07;26.33;;;18.35;;
60722;SDS011;46574;52.818;6.516;2023-03-21T05:05:36;26.67;;;18.05;;
60722;SDS011;46574;52.818;6.516;2023-03-21T05:08:02;25.95;;;17.85;;
60722;SDS011;46574;52.818;6.516;2023-03-21T05:10:29;28.35;;;18.25;;
60722;SDS011;46574;52.818;6.516;2023-03-21T05:12:54;28.65;;;18.73;;
60722;SDS011;46574;52.818;6.516;2023-03-21T05:15:20;29.90;;;20.38;;
60722;SDS011;46574;52.818;6.516;2023-03-21T05:17:46;28.75;;;19.98;;
60722;SDS011;46574;52.818;6.516;2023-03-21T05:20:12;25.70;;;17.42;;
60722;SDS011;46574;52.818;6.516;2023-03-21T05:22:41;30.77;;;20.38;;
60722;SDS011;46574;52.818;6.516;2023-03-21T05:25:10;29.65;;;18.63;;
60722;SDS011;46574;52.818;6.516;2023-03-21T05:27:37;32.00;;;20.98;;
60722;SDS011;46574;52.818;6.516;2023-03-21T05:30:10;35.63;;;21.85;;
60722;SDS011;46574;52.818;6.516;2023-03-21T05:32:38;31.85;;;20.77;;
60722;SDS011;46574;52.818;6.516;2023-03-21T05:35:04;37.03;;;22.15;;
60722;SDS011;46574;52.818;6.516;2023-03-21T05:37:30;30.50;;;20.88;;
60722;SDS011;46574;52.818;6.516;2023-03-21T05:39:56;36.75;;;22.30;;
60722;SDS011;46574;52.818;6.516;2023-03-21T05:42:22;39.08;;;23.30;;
60722;SDS011;46574;52.818;6.516;2023-03-21T05:44:47;42.47;;;23.48;;
60722;SDS011;46574;52.818;6.516;2023-03-21T05:47:14;33.95;;;22.33;;
60722;SDS011;46574;52.818;6.516;2023-03-21T05:49:40;33.03;;;21.65;;
60722;SDS011;46574;52.818;6.516;2023-03-21T05:52:07;37.05;;;22.80;;
60722;SDS011;46574;52.818;6.516;2023-03-21T05:54:32;36.15;;;22.65;;
60722;SDS011;46574;52.818;6.516;2023-03-21T05:56:58;39.75;;;23.67;;
60722;SDS011;46574;52.818;6.516;2023-03-21T05:59:24;36.78;;;23.02;;
60722;SDS011;46574;52.818;6.516;2023-03-21T06:01:50;44.80;;;25.17;;
60722;SDS011;46574;52.818;6.516;2023-03-21T06:04:16;42.55;;;25.33;;
60722;SDS011;46574;52.818;6.516;2023-03-21T06:06:41;39.63;;;23.88;;
60722;SDS011;46574;52.818;6.516;2023-03-21T06:09:07;42.63;;;24.17;;
60722;SDS011;46574;52.818;6.516;2023-03-21T06:11:34;40.45;;;24.02;;
60722;SDS011;46574;52.818;6.516;2023-03-21T06:14:01;43.75;;;25.88;;
60722;SDS011;46574;52.818;6.516;2023-03-21T06:16:27;39.92;;;24.98;;
60722;SDS011;46574;52.818;6.516;2023-03-21T06:18:53;40.13;;;24.10;;
60722;SDS011;46574;52.818;6.516;2023-03-21T06:21:20;44.53;;;25.65;;
60722;SDS011;46574;52.818;6.516;2023-03-21T06:23:46;37.90;;;23.27;;
60722;SDS011;46574;52.818;6.516;2023-03-21T06:26:12;40.00;;;23.75;;
60722;SDS011;46574;52.818;6.516;2023-03-21T06:28:38;41.10;;;23.40;;
60722;SDS011;46574;52.818;6.516;2023-03-21T06:31:04;37.05;;;22.80;;
60722;SDS011;46574;52.818;6.516;2023-03-21T06:33:29;36.35;;;21.55;;
60722;SDS011;46574;52.818;6.516;2023-03-21T06:35:56;36.70;;;21.70;;
60722;SDS011;46574;52.818;6.516;2023-03-21T06:38:22;33.03;;;21.15;;
60722;SDS011;46574;52.818;6.516;2023-03-21T06:40:49;37.28;;;21.52;;
60722;SDS011;46574;52.818;6.516;2023-03-21T06:43:15;30.20;;;20.35;;
60722;SDS011;46574;52.818;6.516;2023-03-21T06:45:41;31.65;;;20.63;;
60722;SDS011;46574;52.818;6.516;2023-03-21T06:48:07;29.15;;;18.23;;
60722;SDS011;46574;52.818;6.516;2023-03-21T06:50:33;28.10;;;17.70;;
60722;SDS011;46574;52.818;6.516;2023-03-21T06:52:59;25.33;;;17.60;;
60722;SDS011;46574;52.818;6.516;2023-03-21T06:55:25;28.67;;;17.20;;
60722;SDS011;46574;52.818;6.516;2023-03-21T06:57:53;22.60;;;15.40;;
60722;SDS011;46574;52.818;6.516;2023-03-21T07:00:19;19.33;;;14.50;;
60722;SDS011;46574;52.818;6.516;2023-03-21T07:02:46;21.10;;;14.70;;
60722;SDS011;46574;52.818;6.516;2023-03-21T07:05:11;19.52;;;13.43;;
60722;SDS011;46574;52.818;6.516;2023-03-21T07:07:37;20.73;;;14.05;;
60722;SDS011;46574;52.818;6.516;2023-03-21T07:10:04;20.73;;;14.70;;
60722;SDS011;46574;52.818;6.516;2023-03-21T07:12:30;19.30;;;14.35;;
60722;SDS011;46574;52.818;6.516;2023-03-21T07:15:03;22.60;;;14.68;;
60722;SDS011;46574;52.818;6.516;2023-03-21T07:17:30;21.17;;;15.02;;
60722;SDS011;46574;52.818;6.516;2023-03-21T07:19:56;19.05;;;14.30;;
60722;SDS011;46574;52.818;6.516;2023-03-21T07:22:22;19.98;;;15.27;;
60722;SDS011;46574;52.818;6.516;2023-03-21T07:24:48;21.15;;;15.85;;
60722;SDS011;46574;52.818;6.516;2023-03-21T07:27:15;22.67;;;15.95;;
60722;SDS011;46574;52.818;6.516;2023-03-21T07:29:41;20.05;;;16.08;;
60722;SDS011;46574;52.818;6.516;2023-03-21T07:32:08;20.85;;;16.10;;
60722;SDS011;46574;52.818;6.516;2023-03-21T07:34:34;23.58;;;16.15;;
60722;SDS011;46574;52.818;6.516;2023-03-21T07:37:02;21.88;;;16.05;;
60722;SDS011;46574;52.818;6.516;2023-03-21T07:39:28;22.48;;;16.13;;
60722;SDS011;46574;52.818;6.516;2023-03-21T07:41:54;21.38;;;15.98;;
60722;SDS011;46574;52.818;6.516;2023-03-21T07:44:20;23.25;;;16.77;;
60722;SDS011;46574;52.818;6.516;2023-03-21T07:46:46;23.70;;;16.83;;
60722;SDS011;46574;52.818;6.516;2023-03-21T07:49:12;22.27;;;16.65;;
60722;SDS011;46574;52.818;6.516;2023-03-21T07:51:38;23.90;;;17.13;;
60722;SDS011;46574;52.818;6.516;2023-03-21T07:54:04;24.10;;;17.85;;
60722;SDS011;46574;52.818;6.516;2023-03-21T07:56:30;23.63;;;18.90;;
60722;SDS011;46574;52.818;6.516;2023-03-21T07:58:56;23.85;;;17.33;;
60722;SDS011;46574;52.818;6.516;2023-03-21T08:01:23;22.10;;;16.95;;
60722;SDS011;46574;52.818;6.516;2023-03-21T08:03:49;24.33;;;18.55;;
60722;SDS011;46574;52.818;6.516;2023-03-21T08:06:18;24.13;;;17.42;;
60722;SDS011;46574;52.818;6.516;2023-03-21T08:08:44;24.88;;;17.98;;
60722;SDS011;46574;52.818;6.516;2023-03-21T08:11:10;26.15;;;17.73;;
60722;SDS011;46574;52.818;6.516;2023-03-21T08:13:36;22.63;;;17.75;;
60722;SDS011;46574;52.818;6.516;2023-03-21T08:16:02;28.20;;;18.52;;
60722;SDS011;46574;52.818;6.516;2023-03-21T08:18:28;24.77;;;17.55;;
60722;SDS011;46574;52.818;6.516;2023-03-21T08:20:54;24.13;;;17.17;;
60722;SDS011;46574;52.818;6.516;2023-03-21T08:23:22;24.90;;;17.83;;
60722;SDS011;46574;52.818;6.516;2023-03-21T08:25:54;25.63;;;17.83;;
60722;SDS011;46574;52.818;6.516;2023-03-21T08:28:21;23.90;;;16.75;;
60722;SDS011;46574;52.818;6.516;2023-03-21T08:30:47;21.63;;;16.20;;
60722;SDS011;46574;52.818;6.516;2023-03-21T08:33:13;23.65;;;17.33;;
60722;SDS011;46574;52.818;6.516;2023-03-21T08:35:39;27.25;;;18.15;;
60722;SDS011;46574;52.818;6.516;2023-03-21T08:38:05;25.08;;;17.58;;
60722;SDS011;46574;52.818;6.516;2023-03-21T08:40:31;24.02;;;17.90;;
60722;SDS011;46574;52.818;6.516;2023-03-21T08:42:57;28.00;;;18.30;;
60722;SDS011;46574;52.818;6.516;2023-03-21T08:45:24;24.55;;;17.65;;
60722;SDS011;46574;52.818;6.516;2023-03-21T08:47:51;24.58;;;18.50;;
60722;SDS011;46574;52.818;6.516;2023-03-21T08:50:18;29.70;;;19.73;;
60722;SDS011;46574;52.818;6.516;2023-03-21T08:52:45;27.10;;;18.55;;
60722;SDS011;46574;52.818;6.516;2023-03-21T08:55:11;28.05;;;19.00;;
60722;SDS011;46574;52.818;6.516;2023-03-21T08:57:38;29.50;;;19.33;;
60722;SDS011;46574;52.818;6.516;2023-03-21T09:00:04;31.15;;;20.13;;
60722;SDS011;46574;52.818;6.516;2023-03-21T09:02:41;29.88;;;19.90;;
60722;SDS011;46574;52.818;6.516;2023-03-21T09:05:12;29.52;;;19.50;;
60722;SDS011;46574;52.818;6.516;2023-03-21T09:07:40;28.70;;;19.93;;
60722;SDS011;46574;52.818;6.516;2023-03-21T09:10:08;31.30;;;20.58;;
60722;SDS011;46574;52.818;6.516;2023-03-21T09:12:36;27.00;;;19.25;;
60722;SDS011;46574;52.818;6.516;2023-03-21T09:15:01;30.45;;;19.52;;
60722;SDS011;46574;52.818;6.516;2023-03-21T09:17:28;29.13;;;20.40;;
60722;SDS011;46574;52.818;6.516;2023-03-21T09:19:55;28.23;;;19.20;;
60722;SDS011;46574;52.818;6.516;2023-03-21T09:22:23;24.80;;;19.38;;
60722;SDS011;46574;52.818;6.516;2023-03-21T09:24:49;30.23;;;20.20;;
60722;SDS011;46574;52.818;6.516;2023-03-21T09:27:15;25.38;;;18.25;;
60722;SDS011;46574;52.818;6.516;2023-03-21T09:29:42;28.10;;;19.80;;
60722;SDS011;46574;52.818;6.516;2023-03-21T09:32:08;27.50;;;18.83;;
60722;SDS011;46574;52.818;6.516;2023-03-21T09:34:36;26.25;;;18.25;;
60722;SDS011;46574;52.818;6.516;2023-03-21T09:37:05;29.00;;;19.38;;
60722;SDS011;46574;52.818;6.516;2023-03-21T09:39:34;28.95;;;18.92;;
60722;SDS011;46574;52.818;6.516;2023-03-21T09:42:06;28.65;;;19.35;;
60722;SDS011;46574;52.818;6.516;2023-03-21T09:47:50;24.33;;;18.35;;
60722;SDS011;46574;52.818;6.516;2023-03-21T09:50:18;28.98;;;18.70;;
60722;SDS011;46574;52.818;6.516;2023-03-21T09:55:37;25.38;;;17.55;;
60722;SDS011;46574;52.818;6.516;2023-03-21T10:00:53;27.90;;;18.20;;
60722;SDS011;46574;52.818;6.516;2023-03-21T10:03:58;24.25;;;17.70;;
60722;SDS011;46574;52.818;6.516;2023-03-21T10:06:27;26.27;;;18.00;;
60722;SDS011;46574;52.818;6.516;2023-03-21T10:11:43;22.15;;;17.40;;
60722;SDS011;46574;52.818;6.516;2023-03-21T10:17:20;25.17;;;17.15;;
60722;SDS011;46574;52.818;6.516;2023-03-21T10:19:54;25.20;;;17.58;;
60722;SDS011;46574;52.818;6.516;2023-03-21T10:22:39;24.52;;;16.20;;
60722;SDS011;46574;52.818;6.516;2023-03-21T10:25:05;22.50;;;16.60;;
60722;SDS011;46574;52.818;6.516;2023-03-21T10:27:32;25.73;;;17.15;;
60722;SDS011;46574;52.818;6.516;2023-03-21T10:30:00;27.67;;;18.45;;
60722;SDS011;46574;52.818;6.516;2023-03-21T10:32:26;23.23;;;17.83;;
60722;SDS011;46574;52.818;6.516;2023-03-21T10:34:55;23.48;;;16.98;;
60722;SDS011;46574;52.818;6.516;2023-03-21T10:37:22;26.10;;;17.17;;
60722;SDS011;46574;52.818;6.516;2023-03-21T10:39:49;22.85;;;16.48;;
60722;SDS011;46574;52.818;6.516;2023-03-21T10:42:24;20.67;;;15.68;;
60722;SDS011;46574;52.818;6.516;2023-03-21T10:44:53;26.27;;;18.90;;
60722;SDS011;46574;52.818;6.516;2023-03-21T10:47:24;23.27;;;16.60;;
60722;SDS011;46574;52.818;6.516;2023-03-21T10:50:01;23.13;;;16.25;;
60722;SDS011;46574;52.818;6.516;2023-03-21T10:52:32;20.73;;;15.50;;
60722;SDS011;46574;52.818;6.516;2023-03-21T10:55:06;21.88;;;15.45;;
60722;SDS011;46574;52.818;6.516;2023-03-21T10:57:41;21.65;;;16.50;;
60722;SDS011;46574;52.818;6.516;2023-03-21T11:00:07;20.73;;;15.15;;
60722;SDS011;46574;52.818;6.516;2023-03-21T11:02:41;23.02;;;16.42;;
60722;SDS011;46574;52.818;6.516;2023-03-21T11:05:17;19.88;;;16.38;;
60722;SDS011;46574;52.818;6.516;2023-03-21T11:07:47;22.83;;;15.98;;
60722;SDS011;46574;52.818;6.516;2023-03-21T11:10:28;23.92;;;15.60;;
60722;SDS011;46574;52.818;6.516;2023-03-21T11:13:01;18.88;;;15.32;;
60722;SDS011;46574;52.818;6.516;2023-03-21T11:15:32;18.90;;;15.23;;
60722;SDS011;46574;52.818;6.516;2023-03-21T11:18:14;20.70;;;15.40;;
60722;SDS011;46574;52.818;6.516;2023-03-21T11:20:48;19.58;;;15.32;;
60722;SDS011;46574;52.818;6.516;2023-03-21T11:23:18;20.13;;;15.32;;
60722;SDS011;46574;52.818;6.516;2023-03-21T11:25:46;21.17;;;15.65;;
60722;SDS011;46574;52.818;6.516;2023-03-21T11:28:16;17.33;;;13.15;;
60722;SDS011;46574;52.818;6.516;2023-03-21T11:30:55;20.33;;;14.90;;
60722;SDS011;46574;52.818;6.516;2023-03-21T11:33:27;17.52;;;14.05;;
60722;SDS011;46574;52.818;6.516;2023-03-21T11:36:39;16.10;;;12.63;;
60722;SDS011;46574;52.818;6.516;2023-03-21T11:41:21;15.00;;;12.80;;
60722;SDS011;46574;52.818;6.516;2023-03-21T11:43:52;17.52;;;12.95;;
60722;SDS011;46574;52.818;6.516;2023-03-21T11:46:22;15.25;;;11.50;;
60722;SDS011;46574;52.818;6.516;2023-03-21T11:48:49;14.43;;;11.52;;
60722;SDS011;46574;52.818;6.516;2023-03-21T11:56:50;16.65;;;9.82;;
60722;SDS011;46574;52.818;6.516;2023-03-21T12:05:02;16.58;;;10.98;;
60722;SDS011;46574;52.818;6.516;2023-03-21T12:21:49;12.13;;;9.60;;
60722;SDS011;46574;52.818;6.516;2023-03-21T12:24:39;12.50;;;9.70;;
60722;SDS011;46574;52.818;6.516;2023-03-21T12:30:19;14.25;;;9.77;;
60722;SDS011;46574;52.818;6.516;2023-03-21T12:44:07;13.30;;;9.52;;
60722;SDS011;46574;52.818;6.516;2023-03-21T12:46:53;12.70;;;8.95;;
60722;SDS011;46574;52.818;6.516;2023-03-21T12:49:30;12.35;;;8.85;;
60722;SDS011;46574;52.818;6.516;2023-03-21T12:52:13;10.95;;;9.02;;
60722;SDS011;46574;52.818;6.516;2023-03-21T12:57:22;14.00;;;9.20;;
60722;SDS011;46574;52.818;6.516;2023-03-21T13:05:32;12.90;;;8.63;;
60722;SDS011;46574;52.818;6.516;2023-03-21T13:10:39;13.13;;;9.80;;
60722;SDS011;46574;52.818;6.516;2023-03-21T13:13:51;12.25;;;8.88;;
60722;SDS011;46574;52.818;6.516;2023-03-21T13:16:23;13.48;;;9.43;;
60722;SDS011;46574;52.818;6.516;2023-03-21T13:22:00;10.52;;;8.63;;
60722;SDS011;46574;52.818;6.516;2023-03-21T13:24:46;11.45;;;8.95;;
60722;SDS011;46574;52.818;6.516;2023-03-21T13:30:20;11.90;;;9.33;;
60722;SDS011;46574;52.818;6.516;2023-03-21T13:32:51;10.48;;;9.25;;
60722;SDS011;46574;52.818;6.516;2023-03-21T13:35:32;13.35;;;9.63;;
60722;SDS011;46574;52.818;6.516;2023-03-21T13:38:04;11.52;;;8.90;;
60722;SDS011;46574;52.818;6.516;2023-03-21T13:40:51;11.35;;;8.80;;
60722;SDS011;46574;52.818;6.516;2023-03-21T13:43:30;9.45;;;8.38;;
60722;SDS011;46574;52.818;6.516;2023-03-21T13:48:32;13.93;;;9.25;;
60722;SDS011;46574;52.818;6.516;2023-03-21T13:51:18;11.95;;;9.80;;
60722;SDS011;46574;52.818;6.516;2023-03-21T13:57:05;12.00;;;9.27;;
60722;SDS011;46574;52.818;6.516;2023-03-21T14:04:57;11.65;;;9.65;;
60722;SDS011;46574;52.818;6.516;2023-03-21T14:12:54;12.70;;;8.77;;
60722;SDS011;46574;52.818;6.516;2023-03-21T14:15:23;12.13;;;8.80;;
60722;SDS011;46574;52.818;6.516;2023-03-21T14:17:52;11.40;;;9.07;;
60722;SDS011;46574;52.818;6.516;2023-03-21T14:20:31;9.48;;;8.55;;
60722;SDS011;46574;52.818;6.516;2023-03-21T14:22:58;12.23;;;8.80;;
60722;SDS011;46574;52.818;6.516;2023-03-21T14:25:24;13.43;;;8.90;;
60722;SDS011;46574;52.818;6.516;2023-03-21T14:27:59;12.30;;;8.93;;
60722;SDS011;46574;52.818;6.516;2023-03-21T14:30:32;9.77;;;8.63;;
60722;SDS011;46574;52.818;6.516;2023-03-21T14:33:04;12.30;;;8.98;;
60722;SDS011;46574;52.818;6.516;2023-03-21T14:35:57;10.25;;;8.70;;
60722;SDS011;46574;52.818;6.516;2023-03-21T14:38:25;12.05;;;8.65;;
60722;SDS011;46574;52.818;6.516;2023-03-21T14:40:56;12.77;;;8.82;;
60722;SDS011;46574;52.818;6.516;2023-03-21T14:43:23;11.35;;;8.65;;
60722;SDS011;46574;52.818;6.516;2023-03-21T14:45:51;12.48;;;9.35;;
60722;SDS011;46574;52.818;6.516;2023-03-21T14:48:19;12.23;;;9.40;;
60722;SDS011;46574;52.818;6.516;2023-03-21T14:50:52;10.73;;;8.85;;
60722;SDS011;46574;52.818;6.516;2023-03-21T14:55:46;11.20;;;9.18;;
60722;SDS011;46574;52.818;6.516;2023-03-21T14:58:18;13.07;;;9.07;;
60722;SDS011;46574;52.818;6.516;2023-03-21T15:00:46;10.68;;;9.55;;
60722;SDS011;46574;52.818;6.516;2023-03-21T15:03:15;11.07;;;9.57;;
60722;SDS011;46574;52.818;6.516;2023-03-21T15:05:42;12.43;;;9.30;;
60722;SDS011;46574;52.818;6.516;2023-03-21T15:08:13;12.40;;;9.68;;
60722;SDS011;46574;52.818;6.516;2023-03-21T15:11:00;12.27;;;9.77;;
60722;SDS011;46574;52.818;6.516;2023-03-21T15:13:47;11.25;;;9.38;;
60722;SDS011;46574;52.818;6.516;2023-03-21T15:16:16;12.90;;;9.73;;
60722;SDS011;46574;52.818;6.516;2023-03-21T15:18:42;11.70;;;9.88;;
60722;SDS011;46574;52.818;6.516;2023-03-21T15:21:14;13.52;;;9.60;;
60722;SDS011;46574;52.818;6.516;2023-03-21T15:23:46;13.15;;;10.00;;
60722;SDS011;46574;52.818;6.516;2023-03-21T15:26:16;11.23;;;9.80;;
60722;SDS011;46574;52.818;6.516;2023-03-21T15:28:44;11.18;;;9.55;;
60722;SDS011;46574;52.818;6.516;2023-03-21T15:31:19;11.95;;;9.88;;
60722;SDS011;46574;52.818;6.516;2023-03-21T15:33:47;13.32;;;10.15;;
60722;SDS011;46574;52.818;6.516;2023-03-21T15:36:17;15.98;;;10.93;;
60722;SDS011;46574;52.818;6.516;2023-03-21T15:38:46;11.68;;;10.48;;
60722;SDS011;46574;52.818;6.516;2023-03-21T15:43:45;11.15;;;10.05;;
60722;SDS011;46574;52.818;6.516;2023-03-21T15:46:13;13.70;;;10.38;;
60722;SDS011;46574;52.818;6.516;2023-03-21T15:48:40;13.93;;;9.63;;
60722;SDS011;46574;52.818;6.516;2023-03-21T15:51:09;11.63;;;9.57;;
60722;SDS011;46574;52.818;6.516;2023-03-21T15:53:45;12.80;;;10.98;;
60722;SDS011;46574;52.818;6.516;2023-03-21T15:56:11;11.82;;;9.98;;
60722;SDS011;46574;52.818;6.516;2023-03-21T15:58:43;11.38;;;10.18;;
60722;SDS011;46574;52.818;6.516;2023-03-21T16:01:14;11.55;;;10.40;;
60722;SDS011;46574;52.818;6.516;2023-03-21T16:03:46;14.35;;;10.98;;
60722;SDS011;46574;52.818;6.516;2023-03-21T16:06:19;13.90;;;12.57;;
60722;SDS011;46574;52.818;6.516;2023-03-21T16:08:53;14.63;;;11.20;;
60722;SDS011;46574;52.818;6.516;2023-03-21T16:11:40;12.25;;;10.82;;
60722;SDS011;46574;52.818;6.516;2023-03-21T16:14:13;13.20;;;11.85;;
60722;SDS011;46574;52.818;6.516;2023-03-21T16:16:39;13.52;;;12.05;;
60722;SDS011;46574;52.818;6.516;2023-03-21T16:19:05;11.90;;;10.70;;
60722;SDS011;46574;52.818;6.516;2023-03-21T16:21:32;12.23;;;9.95;;
60722;SDS011;46574;52.818;6.516;2023-03-21T16:23:58;12.35;;;11.15;;
60722;SDS011;46574;52.818;6.516;2023-03-21T16:26:26;13.25;;;11.88;;
60722;SDS011;46574;52.818;6.516;2023-03-21T16:28:54;13.65;;;10.45;;
60722;SDS011;46574;52.818;6.516;2023-03-21T16:31:22;12.32;;;11.00;;
60722;SDS011;46574;52.818;6.516;2023-03-21T16:36:17;13.93;;;11.25;;
60722;SDS011;46574;52.818;6.516;2023-03-21T16:38:51;11.40;;;10.30;;
60722;SDS011;46574;52.818;6.516;2023-03-21T16:41:18;12.93;;;10.70;;
60722;SDS011;46574;52.818;6.516;2023-03-21T16:43:44;13.40;;;11.15;;
60722;SDS011;46574;52.818;6.516;2023-03-21T16:46:20;14.88;;;11.45;;
60722;SDS011;46574;52.818;6.516;2023-03-21T16:48:49;14.57;;;11.32;;
60722;SDS011;46574;52.818;6.516;2023-03-21T16:51:17;14.00;;;12.45;;